createdAt,value
2019-05-23T00:00:48.219Z,12.34
2019-05-23T00:01:48.209Z,12.32
2019-05-23T00:02:48.210Z,12.30
2019-05-23T00:03:48.189Z,12.26
2019-05-23T00:04:48.180Z,12.26
2019-05-23T00:05:48.165Z,12.24
2019-05-23T00:06:48.169Z,12.24
2019-05-23T00:07:48.145Z,12.22
2019-05-23T00:08:48.144Z,12.20
2019-05-23T00:09:48.121Z,12.21
2019-05-23T00:10:48.113Z,12.17
2019-05-23T00:11:48.099Z,12.15
2019-05-23T00:12:48.097Z,12.14
2019-05-23T00:13:48.076Z,12.13
2019-05-23T00:14:48.081Z,12.12
2019-05-23T00:15:48.058Z,12.09
2019-05-23T00:16:48.043Z,12.08
2019-05-23T00:17:48.031Z,12.07
2019-05-23T00:18:48.021Z,12.06
2019-05-23T00:19:48.013Z,12.06
2019-05-23T00:20:48.020Z,12.03
2019-05-23T00:21:47.991Z,12.03
2019-05-23T00:22:47.978Z,12.02
2019-05-23T00:23:47.967Z,12.01
2019-05-23T00:24:47.957Z,12.00
2019-05-23T00:25:47.951Z,11.98
2019-05-23T00:26:47.974Z,11.97
2019-05-23T00:27:47.923Z,11.95
2019-05-23T00:28:47.912Z,11.94
2019-05-23T00:29:47.902Z,11.92
2019-05-23T00:30:47.892Z,11.91
2019-05-23T00:31:47.884Z,11.89
2019-05-23T00:32:47.888Z,11.88
2019-05-23T00:33:47.859Z,11.85
2019-05-23T00:34:47.852Z,11.83
2019-05-23T00:35:47.843Z,11.81
2019-05-23T00:36:47.828Z,11.79
2019-05-23T00:37:47.816Z,11.77
2019-05-23T00:38:47.815Z,11.75
2019-05-23T00:39:47.794Z,11.72
2019-05-23T00:40:47.784Z,11.70
2019-05-23T00:41:47.774Z,11.69
2019-05-23T00:42:47.821Z,11.67
2019-05-23T00:43:47.753Z,11.66
2019-05-23T00:44:47.754Z,11.64
2019-05-23T00:45:47.729Z,11.62
2019-05-23T00:46:47.720Z,11.62
2019-05-23T00:47:47.709Z,11.60
2019-05-23T00:48:47.698Z,11.59
2019-05-23T00:49:47.692Z,11.58
2019-05-23T00:50:47.692Z,11.55
2019-05-23T00:51:47.667Z,11.54
2019-05-23T00:52:47.660Z,11.53
2019-05-23T00:53:47.645Z,11.51
2019-05-23T00:54:47.635Z,11.49
2019-05-23T00:55:47.624Z,11.48
2019-05-23T00:56:47.627Z,11.47
2019-05-23T00:57:47.602Z,11.45
2019-05-23T00:58:47.594Z,11.42
2019-05-23T00:59:47.581Z,11.42
2019-05-23T01:00:47.571Z,11.38
2019-05-23T01:01:47.566Z,11.36
2019-05-23T01:02:47.563Z,11.34
2019-05-23T01:03:47.541Z,11.32
2019-05-23T01:04:47.527Z,11.30
2019-05-23T01:05:47.516Z,11.30
2019-05-23T01:06:47.506Z,11.27
2019-05-23T01:07:47.496Z,11.27
2019-05-23T01:08:47.498Z,11.26
2019-05-23T01:09:47.476Z,11.25
2019-05-23T01:10:47.463Z,11.24
2019-05-23T01:11:47.454Z,11.22
2019-05-23T01:12:47.444Z,11.21
2019-05-23T01:13:47.428Z,11.20
2019-05-23T01:14:47.429Z,11.19
2019-05-23T01:15:47.411Z,11.17
2019-05-23T01:16:47.401Z,11.16
2019-05-23T01:17:47.388Z,11.14
2019-05-23T01:18:47.374Z,11.13
2019-05-23T01:19:47.366Z,11.11
2019-05-23T01:20:47.362Z,11.09
2019-05-23T01:21:47.342Z,11.08
2019-05-23T01:22:47.331Z,11.06
2019-05-23T01:23:47.323Z,11.05
2019-05-23T01:24:47.314Z,11.03
2019-05-23T01:25:47.301Z,11.01
2019-05-23T01:26:47.297Z,11.00
2019-05-23T01:27:47.277Z,10.99
2019-05-23T01:28:47.268Z,10.97
2019-05-23T01:29:49.710Z,10.97
2019-05-23T01:30:47.252Z,10.96
2019-05-23T01:31:47.232Z,10.93
2019-05-23T01:32:47.233Z,10.93
2019-05-23T01:33:47.211Z,10.91
2019-05-23T01:34:47.202Z,10.89
2019-05-23T01:35:47.188Z,10.88
2019-05-23T01:36:47.178Z,10.87
2019-05-23T01:37:47.174Z,10.85
2019-05-23T01:38:47.166Z,10.84
2019-05-23T01:39:47.145Z,10.82
2019-05-23T01:40:47.137Z,10.82
2019-05-23T01:41:47.122Z,10.80
2019-05-23T01:42:47.112Z,10.79
2019-05-23T01:43:47.102Z,10.79
2019-05-23T01:44:47.105Z,10.77
2019-05-23T01:45:47.080Z,10.76
2019-05-23T01:46:47.070Z,10.75
2019-05-23T01:47:47.057Z,10.76
2019-05-23T01:48:47.046Z,10.74
2019-05-23T01:49:47.037Z,10.73
2019-05-23T01:50:47.035Z,10.72
2019-05-23T01:51:47.015Z,10.71
2019-05-23T01:52:47.026Z,10.69
2019-05-23T01:53:46.993Z,10.67
2019-05-23T01:54:46.982Z,10.68
2019-05-23T01:55:46.975Z,10.67
2019-05-23T01:56:46.979Z,10.65
2019-05-23T01:57:46.950Z,10.66
2019-05-23T01:58:46.939Z,10.62
2019-05-23T01:59:46.928Z,10.62
2019-05-23T02:00:46.939Z,10.60
2019-05-23T02:01:46.909Z,10.59
2019-05-23T02:02:46.914Z,10.58
2019-05-23T02:03:46.884Z,10.55
2019-05-23T02:04:46.876Z,10.56
2019-05-23T02:05:46.863Z,10.53
2019-05-23T02:06:46.851Z,10.52
2019-05-23T02:07:46.841Z,10.52
2019-05-23T02:08:46.842Z,10.51
2019-05-23T02:09:46.825Z,10.50
2019-05-23T02:10:46.810Z,10.49
2019-05-23T02:11:46.797Z,10.48
2019-05-23T02:12:46.786Z,10.47
2019-05-23T02:13:46.779Z,10.46
2019-05-23T02:14:46.785Z,10.45
2019-05-23T02:15:46.757Z,10.44
2019-05-23T02:16:46.745Z,10.45
2019-05-23T02:17:46.737Z,10.43
2019-05-23T02:18:46.741Z,10.43
2019-05-23T02:19:46.719Z,10.41
2019-05-23T02:20:46.715Z,10.40
2019-05-23T02:21:46.694Z,10.38
2019-05-23T02:22:46.681Z,10.38
2019-05-23T02:23:46.672Z,10.35
2019-05-23T02:24:46.672Z,10.34
2019-05-23T02:25:46.651Z,10.32
2019-05-23T02:26:46.648Z,10.31
2019-05-23T02:27:46.632Z,10.29
2019-05-23T02:28:46.616Z,10.27
2019-05-23T02:29:46.607Z,10.25
2019-05-23T02:30:46.596Z,10.24
2019-05-23T02:31:46.585Z,10.22
2019-05-23T02:32:46.592Z,10.21
2019-05-23T02:33:46.563Z,10.19
2019-05-23T02:34:46.553Z,10.16
2019-05-23T02:35:46.543Z,10.15
2019-05-23T02:36:46.533Z,10.12
2019-05-23T02:37:46.525Z,10.11
2019-05-23T02:38:46.522Z,10.09
2019-05-23T02:39:46.505Z,10.07
2019-05-23T02:40:46.492Z,10.06
2019-05-23T02:41:46.479Z,10.06
2019-05-23T02:42:46.469Z,10.03
2019-05-23T02:43:46.457Z,10.00
2019-05-23T02:44:46.459Z,9.97
2019-05-23T02:45:46.435Z,9.96
2019-05-23T02:46:46.424Z,9.94
2019-05-23T02:47:46.416Z,9.93
2019-05-23T02:48:46.404Z,9.91
2019-05-23T02:49:46.393Z,9.91
2019-05-23T02:50:46.395Z,9.90
2019-05-23T02:51:46.372Z,9.88
2019-05-23T02:52:46.362Z,9.87
2019-05-23T02:53:46.350Z,9.85
2019-05-23T02:54:46.341Z,9.85
2019-05-23T02:55:46.328Z,9.83
2019-05-23T02:56:46.351Z,9.84
2019-05-23T02:57:46.307Z,9.82
2019-05-23T02:58:46.295Z,9.81
2019-05-23T02:59:46.285Z,9.80
2019-05-23T03:00:54.306Z,9.80
2019-05-23T03:01:47.273Z,9.78
2019-05-23T03:02:46.254Z,9.77
2019-05-23T03:03:46.241Z,9.77
2019-05-23T03:04:46.232Z,9.77
2019-05-23T03:05:46.220Z,9.75
2019-05-23T03:06:46.212Z,9.74
2019-05-23T03:07:46.214Z,9.73
2019-05-23T03:08:46.187Z,9.73
2019-05-23T03:09:46.181Z,9.73
2019-05-23T03:10:46.166Z,9.72
2019-05-23T03:11:46.156Z,9.72
2019-05-23T03:12:46.146Z,9.71
2019-05-23T03:13:46.151Z,9.70
2019-05-23T03:14:46.150Z,9.70
2019-05-23T03:15:46.115Z,9.68
2019-05-23T03:16:46.102Z,9.69
2019-05-23T03:17:46.095Z,9.68
2019-05-23T03:18:46.078Z,9.68
2019-05-23T03:19:46.090Z,9.67
2019-05-23T03:20:46.057Z,9.66
2019-05-23T03:21:46.047Z,9.65
2019-05-23T03:22:46.172Z,9.65
2019-05-23T03:23:46.024Z,9.65
2019-05-23T03:24:46.014Z,9.65
2019-05-23T03:25:46.012Z,9.67
2019-05-23T03:26:46.007Z,9.66
2019-05-23T03:27:45.983Z,9.68
2019-05-23T03:28:45.983Z,9.67
2019-05-23T03:29:45.959Z,9.68
2019-05-23T03:30:45.951Z,9.70
2019-05-23T03:31:45.953Z,9.69
2019-05-23T03:32:45.930Z,9.71
2019-05-23T03:33:45.918Z,9.72
2019-05-23T03:34:45.908Z,9.72
2019-05-23T03:35:45.895Z,9.74
2019-05-23T03:36:45.883Z,9.77
2019-05-23T03:37:45.931Z,9.78
2019-05-23T03:38:45.861Z,9.82
2019-05-23T03:39:45.851Z,9.84
2019-05-23T03:40:45.839Z,9.86
2019-05-23T03:41:45.830Z,9.89
2019-05-23T03:42:45.823Z,9.91
2019-05-23T03:43:45.817Z,9.96
2019-05-23T03:44:45.797Z,9.99
2019-05-23T03:45:45.791Z,10.03
2019-05-23T03:46:45.773Z,10.05
2019-05-23T03:47:45.763Z,10.09
2019-05-23T03:48:45.753Z,10.14
2019-05-23T03:49:45.752Z,10.17
2019-05-23T03:50:45.729Z,10.20
2019-05-23T03:51:45.717Z,10.24
2019-05-23T03:52:45.719Z,10.29
2019-05-23T03:53:45.695Z,10.32
2019-05-23T03:54:45.686Z,10.38
2019-05-23T03:55:45.697Z,10.42
2019-05-23T03:56:45.670Z,10.49
2019-05-23T03:57:45.657Z,10.55
2019-05-23T03:58:45.650Z,10.62
2019-05-23T03:59:45.636Z,10.64
2019-05-23T04:00:45.634Z,10.69
2019-05-23T04:01:48.424Z,10.75
2019-05-23T04:02:45.600Z,10.81
2019-05-23T04:03:45.602Z,10.91
2019-05-23T04:04:45.581Z,11.03
2019-05-23T04:05:45.568Z,11.14
2019-05-23T04:06:45.559Z,11.25
2019-05-23T04:07:45.558Z,11.36
2019-05-23T04:08:45.537Z,11.46
2019-05-23T04:09:45.528Z,11.53
2019-05-23T04:10:45.516Z,11.59
2019-05-23T04:11:45.513Z,11.65
2019-05-23T04:12:45.497Z,11.70
2019-05-23T04:13:45.494Z,11.72
2019-05-23T04:14:45.474Z,11.75
2019-05-23T04:15:45.462Z,11.77
2019-05-23T04:16:45.453Z,11.81
2019-05-23T04:17:45.454Z,11.88
2019-05-23T04:18:45.430Z,11.94
2019-05-23T04:19:45.439Z,12.03
2019-05-23T04:20:45.410Z,12.06
2019-05-23T04:21:45.417Z,12.11
2019-05-23T04:22:45.386Z,12.14
2019-05-23T04:23:45.377Z,12.21
2019-05-23T04:24:45.363Z,12.29
2019-05-23T04:25:45.371Z,12.42
2019-05-23T04:26:45.341Z,12.65
2019-05-23T04:27:45.330Z,12.96
2019-05-23T04:28:45.320Z,13.29
2019-05-23T04:29:45.309Z,13.61
2019-05-23T04:30:45.302Z,13.94
2019-05-23T04:31:45.300Z,14.27
2019-05-23T04:32:45.276Z,14.63
2019-05-23T04:33:45.355Z,15.00
2019-05-23T04:34:45.256Z,15.29
2019-05-23T04:35:45.242Z,15.56
2019-05-23T04:36:45.232Z,16.03
2019-05-23T04:37:45.232Z,16.54
2019-05-23T04:38:45.210Z,17.05
2019-05-23T04:39:45.203Z,17.51
2019-05-23T04:40:45.190Z,17.90
2019-05-23T04:41:45.185Z,18.24
2019-05-23T04:42:45.168Z,18.60
2019-05-23T04:43:45.167Z,18.92
2019-05-23T04:44:45.156Z,19.19
2019-05-23T04:45:45.134Z,19.45
2019-05-23T04:46:45.125Z,19.74
2019-05-23T04:47:45.116Z,20.05
2019-05-23T04:48:45.112Z,20.39
2019-05-23T04:49:45.102Z,20.69
2019-05-23T04:50:45.082Z,20.87
2019-05-23T04:51:45.069Z,21.02
2019-05-23T04:52:45.057Z,21.24
2019-05-23T04:53:45.053Z,21.65
2019-05-23T04:54:45.038Z,21.98
2019-05-23T04:55:45.038Z,22.21
2019-05-23T04:56:45.023Z,22.49
2019-05-23T04:57:45.003Z,22.74
2019-05-23T04:58:44.999Z,22.90
2019-05-23T04:59:44.984Z,22.99
2019-05-23T05:00:44.979Z,23.05
2019-05-23T05:01:44.977Z,23.10
2019-05-23T05:02:44.949Z,23.29
2019-05-23T05:03:44.958Z,23.55
2019-05-23T05:04:44.932Z,23.83
2019-05-23T05:05:44.917Z,24.03
2019-05-23T05:06:44.908Z,24.18
2019-05-23T05:07:44.931Z,24.46
2019-05-23T05:08:44.885Z,24.71
2019-05-23T05:09:44.875Z,24.90
2019-05-23T05:10:44.863Z,25.09
2019-05-23T05:11:44.853Z,25.37
2019-05-23T05:12:44.846Z,25.62
2019-05-23T05:13:44.841Z,25.86
2019-05-23T05:14:44.821Z,26.09
2019-05-23T05:15:44.809Z,26.31
2019-05-23T05:16:44.800Z,26.57
2019-05-23T05:17:44.785Z,26.87
2019-05-23T05:18:44.830Z,27.13
2019-05-23T05:19:44.774Z,27.29
2019-05-23T05:20:44.765Z,27.40
2019-05-23T05:21:44.742Z,27.48
2019-05-23T05:22:44.733Z,27.59
2019-05-23T05:23:44.726Z,27.65
2019-05-23T05:24:44.710Z,27.80
2019-05-23T05:25:44.709Z,28.00
2019-05-23T05:26:44.691Z,28.25
2019-05-23T05:27:44.679Z,28.50
2019-05-23T05:28:44.669Z,28.70
2019-05-23T05:29:44.659Z,28.91
2019-05-23T05:30:44.656Z,29.07
2019-05-23T05:31:44.644Z,29.26
2019-05-23T05:32:45.808Z,29.51
2019-05-23T05:33:44.613Z,29.72
2019-05-23T05:34:44.607Z,29.95
2019-05-23T05:35:44.591Z,30.19
2019-05-23T05:36:44.582Z,30.43
2019-05-23T05:37:44.586Z,30.63
2019-05-23T05:38:44.560Z,30.70
2019-05-23T05:39:44.550Z,30.70
2019-05-23T05:40:44.537Z,30.72
2019-05-23T05:41:44.525Z,30.80
2019-05-23T05:42:44.514Z,30.92
2019-05-23T05:43:44.521Z,31.09
2019-05-23T05:44:44.494Z,31.20
2019-05-23T05:45:44.486Z,31.34
2019-05-23T05:46:44.473Z,31.39
2019-05-23T05:47:44.469Z,31.52
2019-05-23T05:48:44.463Z,31.67
2019-05-23T05:49:44.456Z,31.84
2019-05-23T05:50:44.453Z,31.96
2019-05-23T05:51:44.418Z,32.06
2019-05-23T05:52:44.408Z,32.20
2019-05-23T05:53:44.420Z,32.32
2019-05-23T05:54:44.385Z,32.42
2019-05-23T05:55:44.385Z,32.53
2019-05-23T05:56:44.363Z,32.55
2019-05-23T05:57:44.358Z,32.63
2019-05-23T05:58:44.345Z,32.80
2019-05-23T05:59:44.335Z,32.87
2019-05-23T06:00:44.336Z,32.93
2019-05-23T06:01:44.320Z,33.03
2019-05-23T06:03:00.866Z,33.16
2019-05-23T06:03:45.287Z,33.35
2019-05-23T06:04:44.277Z,33.55
2019-05-23T06:05:44.273Z,33.82
2019-05-23T06:06:44.257Z,34.06
2019-05-23T06:07:44.256Z,34.28
2019-05-23T06:08:44.238Z,34.54
2019-05-23T06:09:44.225Z,34.72
2019-05-23T06:10:44.215Z,34.94
2019-05-23T06:11:44.203Z,35.10
2019-05-23T06:12:44.194Z,35.23
2019-05-23T06:13:44.190Z,35.41
2019-05-23T06:14:46.503Z,35.63
2019-05-23T06:15:44.161Z,35.87
2019-05-23T06:16:44.153Z,36.11
2019-05-23T06:17:44.138Z,36.36
2019-05-23T06:18:44.159Z,36.55
2019-05-23T06:19:44.156Z,36.73
2019-05-23T06:20:44.108Z,36.92
2019-05-23T06:21:44.096Z,37.06
2019-05-23T06:22:44.099Z,37.33
2019-05-23T06:23:44.081Z,37.49
2019-05-23T06:24:50.357Z,37.57
2019-05-23T06:25:45.063Z,37.63
2019-05-23T06:26:44.041Z,37.70
2019-05-23T06:27:44.032Z,37.76
2019-05-23T06:28:44.020Z,37.78
2019-05-23T06:29:44.012Z,37.81
2019-05-23T06:30:43.998Z,37.87
2019-05-23T06:31:44.010Z,37.90
2019-05-23T06:32:43.983Z,37.98
2019-05-23T06:33:43.967Z,38.18
2019-05-23T06:34:43.957Z,38.32
2019-05-23T06:35:43.970Z,38.46
2019-05-23T06:36:43.934Z,38.56
2019-05-23T06:37:43.936Z,38.70
2019-05-23T06:38:43.914Z,38.86
2019-05-23T06:39:44.015Z,38.98
2019-05-23T06:40:43.894Z,39.18
2019-05-23T06:41:43.881Z,39.31
2019-05-23T06:42:44.074Z,39.41
2019-05-23T06:43:43.878Z,39.63
2019-05-23T06:44:43.852Z,39.91
2019-05-23T06:45:43.841Z,40.14
2019-05-23T06:46:43.828Z,40.30
2019-05-23T06:47:43.819Z,40.35
2019-05-23T06:48:45.828Z,40.39
2019-05-23T06:49:43.806Z,40.47
2019-05-23T06:50:43.786Z,40.56
2019-05-23T06:51:43.777Z,40.64
2019-05-23T06:52:43.773Z,40.76
2019-05-23T06:53:43.760Z,40.84
2019-05-23T06:54:43.745Z,40.90
2019-05-23T06:55:43.744Z,40.99
2019-05-23T06:56:43.734Z,41.12
2019-05-23T06:57:43.713Z,41.20
2019-05-23T06:58:43.701Z,41.38
2019-05-23T06:59:43.690Z,41.51
2019-05-23T07:00:43.685Z,41.58
2019-05-23T07:01:43.690Z,41.61
2019-05-23T07:02:43.660Z,41.62
2019-05-23T07:03:44.143Z,41.54
2019-05-23T07:04:43.637Z,41.47
2019-05-23T07:05:43.628Z,41.38
2019-05-23T07:06:43.616Z,41.24
2019-05-23T07:07:43.674Z,41.17
2019-05-23T07:08:43.596Z,41.15
2019-05-23T07:09:43.583Z,41.15
2019-05-23T07:10:44.633Z,41.18
2019-05-23T07:11:43.573Z,41.22
2019-05-23T07:12:43.552Z,41.31
2019-05-23T07:13:43.554Z,41.49
2019-05-23T07:14:43.533Z,41.62
2019-05-23T07:15:43.522Z,41.67
2019-05-23T07:16:43.519Z,41.71
2019-05-23T07:17:43.506Z,41.77
2019-05-23T07:18:43.691Z,41.83
2019-05-23T07:19:43.492Z,41.88
2019-05-23T07:20:43.494Z,41.96
2019-05-23T07:21:43.459Z,42.04
2019-05-23T07:22:43.448Z,42.07
2019-05-23T07:23:43.440Z,42.04
2019-05-23T07:24:57.393Z,42.00
2019-05-23T07:25:44.464Z,41.98
2019-05-23T07:26:43.408Z,42.01
2019-05-23T07:27:43.404Z,42.10
2019-05-23T07:28:43.387Z,42.17
2019-05-23T07:29:43.374Z,42.28
2019-05-23T07:30:43.425Z,42.44
2019-05-23T07:31:43.363Z,42.71
2019-05-23T07:32:43.343Z,42.99
2019-05-23T07:34:00.365Z,43.18
2019-05-23T07:34:44.321Z,43.36
2019-05-23T07:35:43.310Z,43.50
2019-05-23T07:36:43.342Z,43.68
2019-05-23T07:37:43.306Z,43.78
2019-05-23T07:38:43.279Z,43.83
2019-05-23T07:39:43.268Z,43.86
2019-05-23T07:40:43.336Z,43.99
2019-05-23T07:41:43.248Z,44.18
2019-05-23T07:42:43.236Z,44.16
2019-05-23T07:43:43.249Z,43.98
2019-05-23T07:44:48.389Z,43.95
2019-05-23T07:45:44.205Z,44.15
2019-05-23T07:46:43.194Z,44.35
2019-05-23T07:47:43.186Z,44.43
2019-05-23T07:48:43.176Z,44.50
2019-05-23T07:49:43.186Z,44.63
2019-05-23T07:50:43.168Z,44.78
2019-05-23T07:51:43.144Z,44.78
2019-05-23T07:52:43.166Z,44.64
2019-05-23T07:53:43.994Z,44.45
2019-05-23T07:54:43.113Z,44.31
2019-05-23T07:55:43.115Z,44.20
2019-05-23T07:56:43.101Z,44.13
2019-05-23T07:57:43.082Z,44.14
2019-05-23T07:58:43.072Z,44.13
2019-05-23T07:59:43.062Z,44.12
2019-05-23T08:00:43.053Z,44.11
2019-05-23T08:01:43.052Z,44.02
2019-05-23T08:02:43.032Z,43.87
2019-05-23T08:03:43.020Z,43.73
2019-05-23T08:04:43.012Z,43.59
2019-05-23T08:05:43.001Z,43.45
2019-05-23T08:06:42.991Z,43.35
2019-05-23T08:07:43.072Z,43.22
2019-05-23T08:08:42.983Z,43.08
2019-05-23T08:09:42.958Z,42.96
2019-05-23T08:10:42.950Z,42.83
2019-05-23T08:11:42.936Z,42.68
2019-05-23T08:12:42.927Z,42.57
2019-05-23T08:13:42.945Z,42.48
2019-05-23T08:14:42.905Z,42.40
2019-05-23T08:15:42.899Z,42.34
2019-05-23T08:16:42.930Z,42.33
2019-05-23T08:17:42.876Z,42.44
2019-05-23T08:18:42.867Z,42.47
2019-05-23T08:19:49.735Z,42.42
2019-05-23T08:20:43.842Z,42.38
2019-05-23T08:21:42.832Z,42.40
2019-05-23T08:22:42.825Z,42.31
2019-05-23T08:23:42.811Z,42.24
2019-05-23T08:24:42.801Z,42.19
2019-05-23T08:25:42.800Z,42.11
2019-05-23T08:26:42.781Z,41.98
2019-05-23T08:27:42.771Z,41.75
2019-05-23T08:29:00.914Z,41.49
2019-05-23T08:29:43.744Z,41.32
2019-05-23T08:30:42.740Z,41.22
2019-05-23T08:31:42.735Z,41.07
2019-05-23T08:32:42.717Z,40.90
2019-05-23T08:33:42.702Z,40.78
2019-05-23T08:34:43.092Z,40.71
2019-05-23T08:35:42.679Z,40.66
2019-05-23T08:36:42.671Z,40.63
2019-05-23T08:37:42.678Z,40.55
2019-05-23T08:38:42.649Z,40.54
2019-05-23T08:39:42.637Z,40.56
2019-05-23T08:40:42.626Z,40.55
2019-05-23T08:41:42.616Z,40.52
2019-05-23T08:42:42.605Z,40.46
2019-05-23T08:43:42.609Z,40.33
2019-05-23T08:44:42.587Z,40.23
2019-05-23T08:45:42.576Z,40.21
2019-05-23T08:46:42.566Z,40.20
2019-05-23T08:47:42.555Z,40.22
2019-05-23T08:48:42.544Z,40.23
2019-05-23T08:49:42.555Z,40.26
2019-05-23T08:50:42.524Z,40.28
2019-05-23T08:51:42.513Z,40.18
2019-05-23T08:52:42.504Z,40.03
2019-05-23T08:53:42.493Z,39.92
2019-05-23T08:54:42.483Z,39.89
2019-05-23T08:55:42.485Z,39.86
2019-05-23T08:56:42.467Z,39.80
2019-05-23T08:57:42.452Z,39.73
2019-05-23T08:58:42.441Z,39.66
2019-05-23T08:59:42.431Z,39.60
2019-05-23T09:00:42.421Z,39.48
2019-05-23T09:01:42.426Z,39.34
2019-05-23T09:02:42.401Z,39.22
2019-05-23T09:03:42.392Z,39.14
2019-05-23T09:05:02.181Z,39.06
2019-05-23T09:05:43.369Z,39.03
2019-05-23T09:06:42.373Z,39.02
2019-05-23T09:07:42.361Z,38.99
2019-05-23T09:08:42.342Z,38.92
2019-05-23T09:09:42.328Z,38.81
2019-05-23T09:10:42.317Z,38.69
2019-05-23T09:11:42.309Z,38.59
2019-05-23T09:12:42.301Z,38.52
2019-05-23T09:13:42.302Z,38.51
2019-05-23T09:14:42.280Z,38.49
2019-05-23T09:15:42.404Z,38.42
2019-05-23T09:16:42.258Z,38.28
2019-05-23T09:17:52.380Z,38.16
2019-05-23T09:18:43.246Z,38.07
2019-05-23T09:19:42.230Z,38.02
2019-05-23T09:20:42.215Z,38.01
2019-05-23T09:21:42.204Z,37.95
2019-05-23T09:22:42.200Z,37.91
2019-05-23T09:23:42.187Z,37.78
2019-05-23T09:24:42.187Z,37.73
2019-05-23T09:25:42.162Z,37.73
2019-05-23T09:26:42.151Z,37.85
2019-05-23T09:27:42.145Z,38.03
2019-05-23T09:28:42.129Z,38.19
2019-05-23T09:29:42.119Z,38.19
2019-05-23T09:30:42.126Z,38.19
2019-05-23T09:31:42.096Z,38.36
2019-05-23T09:32:42.092Z,38.50
2019-05-23T09:33:42.079Z,38.55
2019-05-23T09:34:42.066Z,38.67
2019-05-23T09:35:42.065Z,38.80
2019-05-23T09:36:42.055Z,38.88
2019-05-23T09:37:42.035Z,38.93
2019-05-23T09:38:42.025Z,38.95
2019-05-23T09:39:42.016Z,39.00
2019-05-23T09:40:42.063Z,39.04
2019-05-23T09:41:42.001Z,39.06
2019-05-23T09:42:41.998Z,39.04
2019-05-23T09:43:41.979Z,39.04
2019-05-23T09:44:41.970Z,38.99
2019-05-23T09:45:41.953Z,38.98
2019-05-23T09:46:41.942Z,39.06
2019-05-23T09:47:41.933Z,39.16
2019-05-23T09:48:41.941Z,39.27
2019-05-23T09:49:41.914Z,39.37
2019-05-23T09:50:41.902Z,39.44
2019-05-23T09:51:41.890Z,39.57
2019-05-23T09:52:41.879Z,39.66
2019-05-23T09:53:47.020Z,39.74
2019-05-23T09:54:42.869Z,39.82
2019-05-23T09:55:41.848Z,39.87
2019-05-23T09:56:41.840Z,39.93
2019-05-23T09:57:41.849Z,40.01
2019-05-23T09:58:41.817Z,40.11
2019-05-23T09:59:41.818Z,40.17
2019-05-23T10:00:41.811Z,40.31
2019-05-23T10:01:41.787Z,40.17
2019-05-23T10:02:41.774Z,40.04
2019-05-23T10:03:41.778Z,40.03
2019-05-23T10:04:41.767Z,40.12
2019-05-23T10:05:44.057Z,40.21
2019-05-23T10:06:41.744Z,40.34
2019-05-23T10:07:41.722Z,40.46
2019-05-23T10:08:41.714Z,40.67
2019-05-23T10:09:41.711Z,40.97
2019-05-23T10:10:41.709Z,41.23
2019-05-23T10:11:41.681Z,41.52
2019-05-23T10:12:41.679Z,41.81
2019-05-23T10:13:41.658Z,42.19
2019-05-23T10:14:41.648Z,42.59
2019-05-23T10:15:41.639Z,42.96
2019-05-23T10:16:41.628Z,43.32
2019-05-23T10:17:41.617Z,43.63
2019-05-23T10:18:41.621Z,43.89
2019-05-23T10:19:41.596Z,44.10
2019-05-23T10:20:41.586Z,44.38
2019-05-23T10:21:41.574Z,44.68
2019-05-23T10:22:41.566Z,45.02
2019-05-23T10:23:41.568Z,45.30
2019-05-23T10:24:41.553Z,45.54
2019-05-23T10:25:41.534Z,45.68
2019-05-23T10:26:41.523Z,45.79
2019-05-23T10:27:41.512Z,45.89
2019-05-23T10:28:41.502Z,45.98
2019-05-23T10:29:41.491Z,46.11
2019-05-23T10:30:41.494Z,46.07
2019-05-23T10:31:41.470Z,46.09
2019-05-23T10:32:41.479Z,46.12
2019-05-23T10:33:41.449Z,46.23
2019-05-23T10:34:41.442Z,46.30
2019-05-23T10:35:56.881Z,46.23
2019-05-23T10:36:42.427Z,46.41
2019-05-23T10:37:41.407Z,46.41
2019-05-23T10:38:41.396Z,46.55
2019-05-23T10:39:41.386Z,46.65
2019-05-23T10:40:41.376Z,46.64
2019-05-23T10:41:41.366Z,46.43
2019-05-23T10:42:41.364Z,46.12
2019-05-23T10:43:41.344Z,45.41
2019-05-23T10:44:44.759Z,44.36
2019-05-23T10:45:41.327Z,42.91
2019-05-23T10:46:41.314Z,41.31
2019-05-23T10:47:41.312Z,39.68
2019-05-23T10:48:41.305Z,38.14
2019-05-23T10:49:41.284Z,36.93
2019-05-23T10:50:44.937Z,35.95
2019-05-23T10:51:41.262Z,35.17
2019-05-23T10:52:41.248Z,34.55
2019-05-23T10:53:41.240Z,34.02
2019-05-23T10:54:41.237Z,33.67
2019-05-23T10:55:41.289Z,33.37
2019-05-23T10:56:41.206Z,33.10
2019-05-23T10:57:41.197Z,32.86
2019-05-23T10:58:41.198Z,32.59
2019-05-23T10:59:41.175Z,32.30
2019-05-23T11:00:41.177Z,32.03
2019-05-23T11:01:41.155Z,31.82
2019-05-23T11:02:41.155Z,31.64
2019-05-23T11:03:41.136Z,31.45
2019-05-23T11:04:41.126Z,31.25
2019-05-23T11:05:41.111Z,31.09
2019-05-23T11:06:41.113Z,30.92
2019-05-23T11:07:41.143Z,30.78
2019-05-23T11:08:41.080Z,30.64
2019-05-23T11:09:41.068Z,30.54
2019-05-23T11:10:41.113Z,30.47
2019-05-23T11:11:41.249Z,30.41
2019-05-23T11:12:41.047Z,30.33
2019-05-23T11:13:41.027Z,30.28
2019-05-23T11:14:41.017Z,30.23
2019-05-23T11:15:41.014Z,30.19
2019-05-23T11:16:40.992Z,30.16
2019-05-23T11:17:40.997Z,30.13
2019-05-23T11:18:41.067Z,30.12
2019-05-23T11:19:40.969Z,30.11
2019-05-23T11:20:40.949Z,30.07
2019-05-23T11:21:40.941Z,30.02
2019-05-23T11:22:40.928Z,29.99
2019-05-23T11:23:40.919Z,29.97
2019-05-23T11:24:40.924Z,29.98
2019-05-23T11:25:40.897Z,29.96
2019-05-23T11:26:40.889Z,29.88
2019-05-23T11:27:40.891Z,29.75
2019-05-23T11:28:40.864Z,29.64
2019-05-23T11:29:40.858Z,29.57
2019-05-23T11:30:40.854Z,29.50
2019-05-23T11:31:40.837Z,29.48
2019-05-23T11:32:40.885Z,29.47
2019-05-23T11:33:40.814Z,29.48
2019-05-23T11:34:40.804Z,29.48
2019-05-23T11:35:40.795Z,29.46
2019-05-23T11:36:40.791Z,29.45
2019-05-23T11:37:42.022Z,29.44
2019-05-23T11:38:40.819Z,29.45
2019-05-23T11:39:48.876Z,29.45
2019-05-23T11:40:41.738Z,29.42
2019-05-23T11:41:40.728Z,29.40
2019-05-23T11:42:40.737Z,29.36
2019-05-23T11:43:40.707Z,29.33
2019-05-23T11:44:40.736Z,29.29
2019-05-23T11:45:45.900Z,29.30
2019-05-23T11:46:41.674Z,29.31
2019-05-23T11:47:40.665Z,29.31
2019-05-23T11:48:40.666Z,29.31
2019-05-23T11:49:40.675Z,29.29
2019-05-23T11:50:40.633Z,29.28
2019-05-23T11:51:40.626Z,29.27
2019-05-23T11:52:40.613Z,29.27
2019-05-23T11:53:40.608Z,29.27
2019-05-23T11:54:40.604Z,29.26
2019-05-23T11:55:40.592Z,29.27
2019-05-23T11:56:40.571Z,29.26
2019-05-23T11:57:40.561Z,29.25
2019-05-23T11:58:40.551Z,29.26
2019-05-23T11:59:40.541Z,29.29
2019-05-23T12:00:40.749Z,29.28
2019-05-23T12:01:40.520Z,29.28
2019-05-23T12:02:40.507Z,29.26
2019-05-23T12:03:40.495Z,29.18
2019-05-23T12:04:40.488Z,29.11
2019-05-23T12:05:40.484Z,29.06
2019-05-23T12:06:54.318Z,28.99
2019-05-23T12:07:41.456Z,28.94
2019-05-23T12:08:40.444Z,28.89
2019-05-23T12:09:40.435Z,28.84
2019-05-23T12:10:40.427Z,28.77
2019-05-23T12:11:42.587Z,28.70
2019-05-23T12:12:40.411Z,28.68
2019-05-23T12:13:40.391Z,28.69
2019-05-23T12:14:40.383Z,28.71
2019-05-23T12:15:40.372Z,28.74
2019-05-23T12:16:40.360Z,28.77
2019-05-23T12:17:40.362Z,28.79
2019-05-23T12:18:40.354Z,28.82
2019-05-23T12:19:40.330Z,28.87
2019-05-23T12:20:40.315Z,28.92
2019-05-23T12:21:40.329Z,28.95
2019-05-23T12:22:40.634Z,28.99
2019-05-23T12:23:40.285Z,29.04
2019-05-23T12:24:40.293Z,29.06
2019-05-23T12:25:40.273Z,29.06
2019-05-23T12:26:40.252Z,29.06
2019-05-23T12:27:40.245Z,29.06
2019-05-23T12:28:40.232Z,29.11
2019-05-23T12:29:40.314Z,29.19
2019-05-23T12:30:40.224Z,29.28
2019-05-23T12:31:40.200Z,29.39
2019-05-23T12:32:40.202Z,29.50
2019-05-23T12:33:40.189Z,29.61
2019-05-23T12:34:40.168Z,29.72
2019-05-23T12:35:40.157Z,29.81
2019-05-23T12:36:40.167Z,29.87
2019-05-23T12:37:40.141Z,29.92
2019-05-23T12:38:40.140Z,29.95
2019-05-23T12:39:40.115Z,29.96
2019-05-23T12:40:40.103Z,29.97
2019-05-23T12:41:40.097Z,29.98
2019-05-23T12:42:40.094Z,29.98
2019-05-23T12:43:40.074Z,29.98
2019-05-23T12:44:40.073Z,30.01
2019-05-23T12:45:40.049Z,30.02
2019-05-23T12:46:40.040Z,30.01
2019-05-23T12:47:40.030Z,30.03
2019-05-23T12:48:40.028Z,29.99
2019-05-23T12:49:40.022Z,29.97
2019-05-23T12:50:39.996Z,29.96
2019-05-23T12:51:39.992Z,29.97
2019-05-23T12:52:39.973Z,29.98
2019-05-23T12:53:39.967Z,29.99
2019-05-23T12:54:39.962Z,30.01